Time;durP1;ratioP1;P1;durP2;ratioP2;P2;SDS_P1;SDS_P2;PMS_P1;PMS_P2;Temp;Humidity;BMP_temperature;BMP_pressure;BME280_temperature;BME280_humidity;BME280_pressure;Samples;Min_cycle;Max_cycle;Signal;HPM_P1;HPM_P2
2023/06/21 00:02:04;;;;;;;;;;;;;;;-144.99;100.00;52113.84;5066635;28;19932;-71
2023/06/21 00:04:30;;;;;;;;;;;;;;;-144.99;100.00;52097.53;5067507;28;20037;-69
2023/06/21 00:06:57;;;;;;;;;;;;;;;-144.99;100.00;52154.59;5068602;28;20272;-71
2023/06/21 00:09:24;;;;;;;;;;;;;;;-144.99;100.00;52162.75;5071232;28;19966;-70
2023/06/21 00:11:50;;;;;;;;;;;;;;;-144.99;100.00;52138.28;5069914;28;19928;-69
2023/06/21 00:14:18;;;;;;;;;;;;;;;-144.99;100.00;52130.13;5066522;28;20069;-72
2023/06/21 00:16:46;;;;;;;;;;;;;;;-144.99;100.00;52113.84;5071683;28;19967;-70
2023/06/21 00:19:12;;;;;;;;;;;;;;;-144.99;100.00;52126.06;5068181;28;20046;-70
2023/06/21 00:21:39;;;;;;;;;;;;;;;-144.99;100.00;52140.31;5067429;28;20014;-71
2023/06/21 00:24:06;;;;;;;;;;;;;;;-144.99;100.00;52142.38;5065867;28;19938;-71
2023/06/21 00:26:32;;;;;;;;;;;;;;;-144.99;100.00;52164.78;5067876;28;20414;-70
2023/06/21 00:28:59;;;;;;;;;;;;;;;-144.99;100.00;52136.25;5064975;28;19943;-71
2023/06/21 00:31:27;;;;;;;;;;;;;;;-144.99;100.00;52117.91;5067499;28;19962;-71
2023/06/21 00:33:54;;;;;;;;;;;;;;;-144.99;100.00;52097.53;5068285;28;19959;-71
2023/06/21 00:36:20;;;;;;;;;;;;;;;-144.99;100.00;52126.06;5067679;28;19964;-70
2023/06/21 00:38:47;;;;;;;;;;;;;;;-144.99;100.00;52142.38;5064917;28;19940;-70
2023/06/21 00:41:14;;;;;;;;;;;;;;;-144.99;100.00;52113.84;5066997;28;19960;-70
2023/06/21 00:43:41;;;;;;;;;;;;;;;-144.99;100.00;52113.84;5068723;28;20001;-71
2023/06/21 00:46:08;;;;;;;;;;;;;;;-144.99;100.00;52134.22;5067835;28;19924;-71
2023/06/21 00:48:35;;;;;;;;;;;;;;;-144.99;100.00;52138.28;5066841;28;20299;-71
2023/06/21 00:51:02;;;;;;;;;;;;;;;-144.99;100.00;52138.28;5070615;28;20282;-71
2023/06/21 00:53:30;;;;;;;;;;;;;;;-144.99;100.00;52134.22;5070546;28;20421;-70
2023/06/21 00:55:57;;;;;;;;;;;;;;;-144.99;100.00;52142.38;5066874;28;20419;-71
2023/06/21 00:58:23;;;;;;;;;;;;;;;-144.99;100.00;52130.13;5066052;28;19943;-70
2023/06/21 01:00:51;;;;;;;;;;;;;;;-144.99;100.00;52126.06;5070276;28;19994;-70
2023/06/21 01:03:18;;;;;;;;;;;;;;;-144.99;100.00;52142.38;5067012;28;20184;-70
2023/06/21 01:05:52;;;;;;;;;;;;;;;-144.99;100.00;52138.28;5067409;28;19943;-70
2023/06/21 01:08:28;;;;;;;;;;;;;;;-144.99;100.00;52128.09;5070035;28;19960;-70
2023/06/21 01:11:03;;;;;;;;;;;;;;;-144.99;100.00;52142.38;5067859;28;20043;-71
2023/06/21 01:13:36;;;;;;;;;;;;;;;-144.99;100.00;52105.69;5068810;28;19992;-71
2023/06/21 01:16:04;;;;;;;;;;;;;;;-144.99;100.00;52121.97;5069146;28;19990;-70
2023/06/21 01:18:32;;;;;;;;;;;;;;;-144.99;100.00;52166.81;5067067;28;19942;-70
2023/06/21 01:21:03;;;;;;;;;;;;;;;-144.99;100.00;52199.44;5066912;28;19966;-70
2023/06/21 01:23:40;;;;;;;;;;;;;;;-144.99;100.00;52195.34;5068743;28;19943;-70
2023/06/21 01:26:11;;;;;;;;;;;;;;;-144.99;100.00;52166.81;5068100;28;19942;-70
2023/06/21 01:28:47;;;;;;;;;;;;;;;-144.99;100.00;52187.19;5066322;28;19942;-70
2023/06/21 01:31:17;;;;;;;;;;;;;;;-144.99;100.00;52138.28;5065758;28;20046;-70
2023/06/21 01:33:44;;;;;;;;;;;;;;;-144.99;100.00;52150.53;5065939;28;20339;-70
2023/06/21 01:36:11;;;;;;;;;;;;;;;-144.99;100.00;52146.44;5065569;28;20427;-69
2023/06/21 01:38:38;;;;;;;;;;;;;;;-144.99;100.00;52168.84;5064802;28;19932;-70
2023/06/21 01:41:06;;;;;;;;;;;;;;;-144.99;100.00;52130.13;5065128;28;20481;-69
2023/06/21 01:43:33;;;;;;;;;;;;;;;-144.99;100.00;52128.09;5063973;28;19957;-69
2023/06/21 01:46:01;;;;;;;;;;;;;;;-144.99;100.00;52097.53;5065417;28;19943;-70
2023/06/21 01:48:31;;;;;;;;;;;;;;;-144.99;100.00;52146.44;5065526;28;19949;-69
2023/06/21 01:50:58;;;;;;;;;;;;;;;-144.99;100.00;52124.03;5065770;28;20054;-69
2023/06/21 01:53:25;;;;;;;;;;;;;;;-144.99;100.00;52117.91;5065539;28;19974;-69
2023/06/21 01:55:53;;;;;;;;;;;;;;;-144.99;100.00;52154.59;5064522;28;20044;-68
2023/06/21 01:58:20;;;;;;;;;;;;;;;-144.99;100.00;52134.22;5064134;28;20286;-71
2023/06/21 02:00:47;;;;;;;;;;;;;;;-144.99;100.00;52126.06;5065103;28;19983;-68
2023/06/21 02:03:15;;;;;;;;;;;;;;;-144.99;100.00;52160.72;5064809;28;20001;-70
2023/06/21 02:05:44;;;;;;;;;;;;;;;-144.99;100.00;52134.22;5065565;28;19966;-70
2023/06/21 02:08:15;;;;;;;;;;;;;;;-144.99;100.00;52187.19;5064992;28;19959;-70
2023/06/21 02:10:42;;;;;;;;;;;;;;;-144.99;100.00;52154.59;5065688;28;19960;-70
2023/06/21 02:13:09;;;;;;;;;;;;;;;-144.99;100.00;52152.56;5065419;28;19942;-70
2023/06/21 02:15:37;;;;;;;;;;;;;;;-144.99;100.00;52121.97;5064819;28;19940;-70
2023/06/21 02:18:04;;;;;;;;;;;;;;;-144.99;100.00;52146.44;5065050;28;20093;-70
2023/06/21 02:20:31;;;;;;;;;;;;;;;-144.99;100.00;52121.97;5065312;28;19981;-70
2023/06/21 02:22:59;;;;;;;;;;;;;;;-144.99;100.00;52146.44;5063905;28;19960;-70
2023/06/21 02:25:26;;;;;;;;;;;;;;;-144.99;100.00;52203.50;5064839;28;20013;-70
2023/06/21 02:27:52;;;;;;;;;;;;;;;-144.99;100.00;52154.59;5073725;28;20123;-70
2023/06/21 02:30:19;;;;;;;;;;;;;;;-144.99;100.00;52166.81;5067125;28;19962;-70
2023/06/21 02:32:46;;;;;;;;;;;;;;;-144.99;100.00;52177.00;5073464;28;19962;-70
2023/06/21 02:35:12;;;;;;;;;;;;;;;-144.99;100.00;52170.91;5072741;28;19944;-70
2023/06/21 02:37:39;;;;;;;;;;;;;;;-144.99;100.00;52187.19;5071646;28;19991;-70
2023/06/21 02:40:10;;;;;;;;;;;;;;;-144.99;100.00;52166.81;5071883;28;19987;-70
2023/06/21 02:42:37;;;;;;;;;;;;;;;-144.99;100.00;52121.97;5070275;28;19939;-70
2023/06/21 02:45:04;;;;;;;;;;;;;;;-144.99;100.00;52183.13;5070636;28;19940;-70
2023/06/21 02:47:31;;;;;;;;;;;;;;;-144.99;100.00;52146.44;5071962;28;19965;-70
2023/06/21 02:49:57;;;;;;;;;;;;;;;-144.99;100.00;52126.06;5071981;28;19956;-70
2023/06/21 02:52:24;;;;;;;;;;;;;;;-144.99;100.00;52166.81;5072010;28;19940;-70
2023/06/21 02:54:52;;;;;;;;;;;;;;;-144.99;100.00;52113.84;5069607;28;20393;-70
2023/06/21 02:57:20;;;;;;;;;;;;;;;-144.99;100.00;52126.06;5073346;28;19966;-70
2023/06/21 02:59:48;;;;;;;;;;;;;;;-144.99;100.00;52158.66;5072170;28;19950;-70
2023/06/21 03:02:16;;;;;;;;;;;;;;;-144.99;100.00;52109.75;5071773;28;20375;-70
2023/06/21 03:04:43;;;;;;;;;;;;;;;-144.99;100.00;52162.75;5077215;28;19994;-70
2023/06/21 03:07:10;;;;;;;;;;;;;;;-144.99;100.00;52148.47;5074347;28;20398;-70
2023/06/21 03:09:36;;;;;;;;;;;;;;;-144.99;100.00;52146.44;5074530;28;19961;-70
2023/06/21 03:12:07;;;;;;;;;;;;;;;-144.99;100.00;52170.91;5076627;28;19938;-70
2023/06/21 03:14:37;;;;;;;;;;;;;;;-144.99;100.00;52183.13;5075937;28;20035;-70
2023/06/21 03:17:04;;;;;;;;;;;;;;;-144.99;100.00;52158.66;5073892;28;19989;-71
2023/06/21 03:19:31;;;;;;;;;;;;;;;-144.99;100.00;52166.81;5077542;28;20551;-70
2023/06/21 03:21:57;;;;;;;;;;;;;;;-144.99;100.00;52174.97;5081385;28;20344;-70
2023/06/21 03:24:26;;;;;;;;;;;;;;;-144.99;100.00;52179.06;5077225;28;20022;-70
2023/06/21 03:26:53;;;;;;;;;;;;;;;-144.99;100.00;52211.66;5075539;28;20027;-71
2023/06/21 03:29:20;;;;;;;;;;;;;;;-144.99;100.00;52174.97;5072976;28;20427;-71
2023/06/21 03:31:48;;;;;;;;;;;;;;;-144.99;100.00;52181.09;5073349;28;19942;-70
2023/06/21 03:34:14;;;;;;;;;;;;;;;-144.99;100.00;52166.81;5075014;28;19940;-71
2023/06/21 03:36:41;;;;;;;;;;;;;;;-144.99;100.00;52174.97;5073359;28;19942;-70
2023/06/21 03:39:08;;;;;;;;;;;;;;;-144.99;100.00;52174.97;5072723;28;20079;-70
2023/06/21 03:41:34;;;;;;;;;;;;;;;-144.99;100.00;52142.38;5070619;28;19941;-70
2023/06/21 03:44:01;;;;;;;;;;;;;;;-144.99;100.00;52191.28;5068832;28;19946;-70
2023/06/21 03:46:27;;;;;;;;;;;;;;;-144.99;100.00;52183.13;5069706;28;20031;-70
2023/06/21 03:48:56;;;;;;;;;;;;;;;-144.99;100.00;52227.97;5073106;28;19935;-70
2023/06/21 03:51:23;;;;;;;;;;;;;;;-144.99;100.00;52166.81;5070109;28;20046;-70
2023/06/21 03:53:50;;;;;;;;;;;;;;;-144.99;100.00;52179.06;5075069;28;20151;-69
2023/06/21 03:56:17;;;;;;;;;;;;;;;-144.99;100.00;52138.28;5078916;28;20040;-69
2023/06/21 03:58:44;;;;;;;;;;;;;;;-144.99;100.00;52142.38;5068896;28;19964;-69
2023/06/21 04:01:10;;;;;;;;;;;;;;;-144.99;100.00;52142.38;5070027;28;20038;-70
2023/06/21 04:03:37;;;;;;;;;;;;;;;-144.99;100.00;52170.91;5070053;28;20362;-70
2023/06/21 04:06:05;;;;;;;;;;;;;;;-144.99;100.00;52146.44;5066190;28;19946;-69
2023/06/21 04:08:32;;;;;;;;;;;;;;;-144.99;100.00;52170.91;5073214;28;20039;-69
2023/06/21 04:10:58;;;;;;;;;;;;;;;-144.99;100.00;52195.34;5070844;28;19996;-70
2023/06/21 04:13:25;;;;;;;;;;;;;;;-144.99;100.00;52179.06;5072828;28;19924;-70
2023/06/21 04:15:52;;;;;;;;;;;;;;;-144.99;100.00;52166.81;5070043;28;19941;-70
2023/06/21 04:18:18;;;;;;;;;;;;;;;-144.99;100.00;52199.44;5070535;28;20068;-70
2023/06/21 04:20:49;;;;;;;;;;;;;;;-144.99;100.00;52138.28;5074504;28;20572;-69
2023/06/21 04:23:17;;;;;;;;;;;;;;;-144.99;100.00;52156.63;5070454;28;20288;-69
2023/06/21 04:25:44;;;;;;;;;;;;;;;-144.99;100.00;52126.06;5070218;28;20001;-69
2023/06/21 04:28:10;;;;;;;;;;;;;;;-144.99;100.00;52134.22;5075527;28;19935;-71
2023/06/21 04:30:37;;;;;;;;;;;;;;;-144.99;100.00;52148.47;5069442;28;20390;-70
2023/06/21 04:33:04;;;;;;;;;;;;;;;-144.99;100.00;52138.28;5069808;28;19937;-70
2023/06/21 04:35:32;;;;;;;;;;;;;;;-144.99;100.00;52154.59;5069675;28;19950;-70
2023/06/21 04:38:00;;;;;;;;;;;;;;;-144.99;100.00;52105.69;5072666;28;19959;-69
2023/06/21 04:40:29;;;;;;;;;;;;;;;-144.99;100.00;52166.81;5072494;28;20037;-71
2023/06/21 04:42:58;;;;;;;;;;;;;;;-144.99;100.00;52142.38;5073106;28;20009;-70
2023/06/21 04:45:26;;;;;;;;;;;;;;;-144.99;100.00;52119.94;5075722;28;20004;-70
2023/06/21 04:47:52;;;;;;;;;;;;;;;-144.99;100.00;52113.84;5072867;28;19936;-71
2023/06/21 04:50:19;;;;;;;;;;;;;;;-144.99;100.00;52138.28;5082116;28;19993;-70
2023/06/21 04:52:47;;;;;;;;;;;;;;;-144.99;100.00;52126.06;5082248;28;19970;-70
2023/06/21 04:55:17;;;;;;;;;;;;;;;-144.99;100.00;52162.75;5077477;28;20293;-71
2023/06/21 04:57:45;;;;;;;;;;;;;;;-144.99;100.00;52170.91;5068316;28;19959;-71
2023/06/21 05:00:13;;;;;;;;;;;;;;;-144.99;100.00;52150.53;5066998;28;19973;-71
2023/06/21 05:02:39;;;;;;;;;;;;;;;-144.99;100.00;52138.28;5071428;28;19924;-70
2023/06/21 05:05:06;;;;;;;;;;;;;;;-144.99;100.00;52183.13;5073357;28;19970;-70
2023/06/21 05:07:33;;;;;;;;;;;;;;;-144.99;100.00;52166.81;5069862;28;19925;-70
2023/06/21 05:09:59;;;;;;;;;;;;;;;-144.99;100.00;52140.31;5072995;28;19924;-70
2023/06/21 05:12:26;;;;;;;;;;;;;;;-144.99;100.00;52154.59;5076629;28;19971;-70
2023/06/21 05:14:54;;;;;;;;;;;;;;;-144.99;100.00;52142.38;5083818;28;19951;-70
2023/06/21 05:17:21;;;;;;;;;;;;;;;-144.99;100.00;52203.50;5087025;28;19928;-70
2023/06/21 05:19:48;;;;;;;;;;;;;;;-144.99;100.00;52179.06;5085390;28;20012;-71
2023/06/21 05:22:15;;;;;;;;;;;;;;;-144.99;100.00;52179.06;5077128;28;20307;-71
2023/06/21 05:24:42;;;;;;;;;;;;;;;-144.99;100.00;52172.94;5075223;28;19949;-69
2023/06/21 05:27:09;;;;;;;;;;;;;;;-144.99;100.00;52154.59;5075352;28;19928;-70
2023/06/21 05:29:35;;;;;;;;;;;;;;;-144.99;100.00;52158.66;5083612;28;19963;-69
2023/06/21 05:32:03;;;;;;;;;;;;;;;-144.99;100.00;52166.81;5090686;28;19916;-70
2023/06/21 05:34:31;;;;;;;;;;;;;;;-144.99;100.00;52162.75;5093299;28;19926;-69
2023/06/21 05:36:57;;;;;;;;;;;;;;;-144.99;100.00;52174.97;5091399;28;19934;-70
2023/06/21 05:39:24;;;;;;;;;;;;;;;-144.99;100.00;52152.56;5089415;28;19974;-69
2023/06/21 05:41:51;;;;;;;;;;;;;;;-144.99;100.00;52146.44;5085877;28;19939;-70
2023/06/21 05:44:17;;;;;;;;;;;;;;;-144.99;100.00;52146.44;5091524;28;19927;-71
2023/06/21 05:46:44;;;;;;;;;;;;;;;-144.99;100.00;52154.59;5089238;28;19957;-71
2023/06/21 05:49:12;;;;;;;;;;;;;;;-144.99;100.00;52132.19;5089595;28;19939;-71
2023/06/21 05:51:38;;;;;;;;;;;;;;;-144.99;100.00;52166.81;5087617;28;20002;-70
2023/06/21 05:54:05;;;;;;;;;;;;;;;-144.99;100.00;52150.53;5088430;28;19996;-70
2023/06/21 05:56:37;;;;;;;;;;;;;;;-144.99;100.00;52121.97;5087068;28;19971;-71
2023/06/21 05:59:03;;;;;;;;;;;;;;;-144.99;100.00;52152.56;5074937;28;19966;-70
2023/06/21 06:01:30;;;;;;;;;;;;;;;-144.99;100.00;52146.44;5077960;28;19942;-70
2023/06/21 06:03:57;;;;;;;;;;;;;;;-144.99;100.00;52130.13;5072721;28;19924;-69
2023/06/21 06:06:34;;;;;;;;;;;;;;;-144.99;100.00;52126.06;5072377;28;19946;-69
2023/06/21 06:09:01;;;;;;;;;;;;;;;-144.99;100.00;52113.84;5061072;28;19968;-70
2023/06/21 06:11:28;;;;;;;;;;;;;;;-144.99;100.00;52121.97;5067802;28;19939;-70
2023/06/21 06:13:54;;;;;;;;;;;;;;;-144.99;100.00;52130.13;5066684;28;20365;-70
2023/06/21 06:16:21;;;;;;;;;;;;;;;-144.99;100.00;52103.66;5070880;28;19932;-70
2023/06/21 06:18:48;;;;;;;;;;;;;;;-144.99;100.00;52077.16;5067546;28;19959;-69
2023/06/21 06:21:14;;;;;;;;;;;;;;;-144.99;100.00;52101.59;5080328;22;20329;-74
2023/06/21 06:23:42;;;;;;;;;;;;;;;-144.99;100.00;52097.53;5066701;28;19958;-73
2023/06/21 06:26:09;;;;;;;;;;;;;;;-144.99;100.00;52121.97;5057133;28;19948;-72
2023/06/21 06:28:36;;;;;;;;;;;;;;;-144.99;100.00;52117.91;5050935;28;19970;-73
2023/06/21 06:31:02;;;;;;;;;;;;;;;-144.99;99.75;52126.06;5032243;28;19967;-73
2023/06/21 06:33:29;;;;;;;;;;;;;;;-144.99;99.96;52089.38;5038690;28;20261;-73
2023/06/21 06:35:55;;;;;;;;;;;;;;;-144.99;98.03;52111.78;5037876;28;19936;-72
2023/06/21 06:38:22;;;;;;;;;;;;;;;-144.99;97.76;52126.06;5038431;28;19959;-74
2023/06/21 06:40:50;;;;;;;;;;;;;;;-144.99;98.12;52113.84;5044119;28;19961;-74
2023/06/21 06:43:17;;;;;;;;;;;;;;;-144.99;96.10;52117.91;5043201;28;20383;-74
2023/06/21 06:45:43;;;;;;;;;;;;;;;-144.99;96.48;52113.84;5043685;28;20416;-74
2023/06/21 06:48:10;;;;;;;;;;;;;;;-144.99;96.24;52095.50;5036960;28;20286;-74
2023/06/21 06:50:38;;;;;;;;;;;;;;;-144.99;97.00;52103.66;5040442;28;20435;-73
2023/06/21 06:53:06;;;;;;;;;;;;;;;-144.99;96.91;52093.44;5041888;28;19972;-73
2023/06/21 06:55:32;;;;;;;;;;;;;;;-144.99;96.03;52105.69;5055280;28;19961;-72
2023/06/21 06:58:01;;;;;;;;;;;;;;;-144.99;96.52;52121.97;5048338;28;19924;-72
2023/06/21 07:00:28;;;;;;;;;;;;;;;-144.99;95.54;52109.75;5048728;28;20313;-73
2023/06/21 07:02:56;;;;;;;;;;;;;;;-144.99;95.51;52130.13;5046180;28;19947;-73
2023/06/21 07:05:23;;;;;;;;;;;;;;;-144.99;95.00;52138.28;5045845;28;19971;-72
2023/06/21 07:07:49;;;;;;;;;;;;;;;-144.99;94.33;52099.56;5043094;28;20490;-73
2023/06/21 07:10:16;;;;;;;;;;;;;;;-144.99;93.72;52093.44;5046731;28;19931;-73
2023/06/21 07:12:43;;;;;;;;;;;;;;;-144.99;92.92;52109.75;5042286;28;19939;-73
2023/06/21 07:15:11;;;;;;;;;;;;;;;-144.99;91.40;52121.97;5049624;28;19937;-73
2023/06/21 07:17:38;;;;;;;;;;;;;;;-144.99;90.57;52117.91;5051843;28;20428;-73
2023/06/21 07:20:06;;;;;;;;;;;;;;;-144.99;88.38;52113.84;5036974;28;20419;-72
2023/06/21 07:22:33;;;;;;;;;;;;;;;-144.99;88.18;52097.53;5049048;28;19999;-72
2023/06/21 07:24:59;;;;;;;;;;;;;;;-144.99;88.79;52097.53;5042811;28;19959;-72
2023/06/21 07:27:27;;;;;;;;;;;;;;;-144.99;89.86;52166.81;5041325;28;19949;-73
2023/06/21 07:29:54;;;;;;;;;;;;;;;-144.99;90.93;52134.22;5041313;28;20004;-73
2023/06/21 07:32:22;;;;;;;;;;;;;;;-144.99;89.27;52111.78;5050369;28;20023;-74
2023/06/21 07:34:49;;;;;;;;;;;;;;;-144.99;89.27;52126.06;5041337;28;20397;-74
2023/06/21 07:37:15;;;;;;;;;;;;;;;-144.99;89.15;52097.53;5059067;28;19932;-73
2023/06/21 07:39:42;;;;;;;;;;;;;;;-144.99;89.32;52117.91;5054365;28;19973;-73
2023/06/21 07:42:09;;;;;;;;;;;;;;;-144.99;89.68;52097.53;5060224;28;19995;-73
2023/06/21 07:44:35;;;;;;;;;;;;;;;-144.99;88.88;52109.75;5060713;28;19941;-73
2023/06/21 07:47:02;;;;;;;;;;;;;;;-144.99;87.72;52091.41;5059220;28;19946;-73
2023/06/21 07:49:30;;;;;;;;;;;;;;;-144.99;87.33;52113.84;5061139;28;19965;-73
2023/06/21 07:51:56;;;;;;;;;;;;;;;-144.99;90.28;52130.13;5065493;28;19984;-73
2023/06/21 07:54:24;;;;;;;;;;;;;;;-144.99;88.57;52085.31;5070075;28;19966;-73
2023/06/21 07:56:50;;;;;;;;;;;;;;;-144.99;87.99;52117.91;5060421;28;19957;-72
2023/06/21 07:59:17;;;;;;;;;;;;;;;-144.99;87.11;52073.06;5056094;28;20400;-72
2023/06/21 08:01:44;;;;;;;;;;;;;;;-144.99;84.74;52097.53;5061434;28;19929;-72
2023/06/21 08:04:10;;;;;;;;;;;;;;;-144.99;84.03;52073.06;5059613;28;19962;-73
2023/06/21 08:06:38;;;;;;;;;;;;;;;-144.99;83.85;52109.75;5051027;28;19966;-73
2023/06/21 08:09:05;;;;;;;;;;;;;;;-144.99;84.10;52079.19;5046489;28;19936;-73
2023/06/21 08:11:31;;;;;;;;;;;;;;;-144.99;83.22;52105.69;5048367;28;19943;-72
2023/06/21 08:13:58;;;;;;;;;;;;;;;-144.99;81.70;52085.31;5047085;28;19937;-74
2023/06/21 08:16:25;;;;;;;;;;;;;;;-144.99;82.52;52085.31;5047126;28;19955;-73
2023/06/21 08:18:51;;;;;;;;;;;;;;;-144.99;82.07;52085.31;5050235;28;19957;-73
2023/06/21 08:21:18;;;;;;;;;;;;;;;-144.99;81.09;52117.91;5041358;28;19936;-73
2023/06/21 08:23:46;;;;;;;;;;;;;;;-144.99;81.29;52117.91;5049195;28;20372;-73
2023/06/21 08:26:13;;;;;;;;;;;;;;;-144.99;81.10;52099.56;5045842;28;20352;-74
2023/06/21 08:28:39;;;;;;;;;;;;;;;-144.99;81.23;52101.59;5042428;28;19935;-72
2023/06/21 08:31:06;;;;;;;;;;;;;;;-144.99;80.80;52130.13;5048717;28;19951;-72
2023/06/21 08:33:33;;;;;;;;;;;;;;;-144.99;80.68;52101.59;5043660;28;19974;-70
2023/06/21 08:35:59;;;;;;;;;;;;;;;-144.99;80.08;52077.16;5039585;28;19944;-71
2023/06/21 08:38:26;;;;;;;;;;;;;;;-144.99;79.97;52089.38;5048106;28;19943;-71
2023/06/21 08:40:58;;;;;;;;;;;;;;;-144.99;79.78;52073.06;5041322;28;19960;-71
2023/06/21 08:43:25;;;;;;;;;;;;;;;-144.99;78.71;52083.25;5047470;28;19986;-71
2023/06/21 08:45:52;;;;;;;;;;;;;;;-144.99;78.26;52101.59;5048628;28;19941;-72
2023/06/21 08:48:22;;;;;;;;;;;;;;;-144.99;77.96;52113.84;5047309;28;19970;-74
2023/06/21 08:50:49;;;;;;;;;;;;;;;-144.99;81.63;52138.28;5043940;28;19964;-73
2023/06/21 08:53:21;;;;;;;;;;;;;;;-144.99;81.86;52146.44;5042034;28;20037;-72
2023/06/21 08:55:48;;;;;;;;;;;;;;;-144.99;80.37;52105.69;5051998;28;19929;-72
2023/06/21 08:58:22;;;;;;;;;;;;;;;-144.99;78.63;52109.75;5042339;28;19937;-72
2023/06/21 09:00:51;;;;;;;;;;;;;;;-144.99;78.43;52099.56;5047064;28;19939;-73
2023/06/21 09:03:20;;;;;;;;;;;;;;;-144.99;77.25;52071.03;5047075;28;19946;-73
2023/06/21 09:05:49;;;;;;;;;;;;;;;-144.99;76.02;52048.63;5039404;28;19945;-72
2023/06/21 09:08:16;;;;;;;;;;;;;;;-144.99;75.28;52079.19;5038026;28;20358;-72
2023/06/21 09:10:43;;;;;;;;;;;;;;;-144.99;75.47;52060.84;5045127;28;19956;-73
2023/06/21 09:13:10;;;;;;;;;;;;;;;-144.99;75.50;52069.00;5043598;28;20324;-72
2023/06/21 09:15:39;;;;;;;;;;;;;;;-144.99;75.91;52101.59;5043805;28;19939;-72
2023/06/21 09:18:06;;;;;;;;;;;;;;;-144.99;74.82;52126.06;5047297;28;19929;-72
2023/06/21 09:20:33;;;;;;;;;;;;;;;-144.99;75.24;52069.00;5046966;28;19959;-73
2023/06/21 09:23:00;;;;;;;;;;;;;;;-144.99;77.42;52079.19;5047508;28;19961;-72
2023/06/21 09:25:27;;;;;;;;;;;;;;;-144.99;77.71;52069.00;5038558;28;20309;-71
2023/06/21 09:27:54;;;;;;;;;;;;;;;-144.99;76.06;52048.63;5039846;28;19937;-71
2023/06/21 09:30:21;;;;;;;;;;;;;;;-144.99;76.19;52093.44;5045139;28;20629;-71
2023/06/21 09:32:49;;;;;;;;;;;;;;;-144.99;75.98;52062.88;5041406;28;19994;-72
2023/06/21 09:35:16;;;;;;;;;;;;;;;-144.99;78.13;52119.94;5046508;28;19964;-72
2023/06/21 09:37:43;;;;;;;;;;;;;;;-144.99;75.74;52073.06;5042981;28;19939;-72
2023/06/21 09:40:10;;;;;;;;;;;;;;;-144.99;74.83;52089.38;5039557;28;20367;-71
2023/06/21 09:42:37;;;;;;;;;;;;;;;-144.99;73.96;52064.91;5043157;28;20449;-71
2023/06/21 09:45:04;;;;;;;;;;;;;;;-144.99;73.93;52073.06;5045098;28;20011;-70
2023/06/21 09:47:31;;;;;;;;;;;;;;;-144.99;74.11;52052.69;5045479;28;19943;-71
2023/06/21 09:49:59;;;;;;;;;;;;;;;-144.99;74.53;52093.44;5044882;28;19955;-71
2023/06/21 09:52:26;;;;;;;;;;;;;;;-144.99;72.28;52062.88;5046715;28;20522;-72
2023/06/21 09:54:56;;;;;;;;;;;;;;;-144.99;71.49;52009.91;5041377;28;19947;-72
2023/06/21 09:57:27;;;;;;;;;;;;;;;-144.99;70.90;52054.72;5043635;28;19945;-72
2023/06/21 09:59:54;;;;;;;;;;;;;;;-144.99;71.86;52105.69;5044642;28;19959;-72
2023/06/21 10:02:20;;;;;;;;;;;;;;;-144.99;73.11;52038.44;5040297;28;20448;-71
2023/06/21 10:04:47;;;;;;;;;;;;;;;-144.99;72.28;52036.38;5045586;28;19929;-71
2023/06/21 10:07:15;;;;;;;;;;;;;;;-144.99;71.87;52036.38;5044910;28;19954;-72
2023/06/21 10:09:42;;;;;;;;;;;;;;;-144.99;70.71;52028.22;5040832;28;20348;-71
2023/06/21 10:12:10;;;;;;;;;;;;;;;-144.99;71.47;52020.09;5042999;28;19939;-72
2023/06/21 10:14:36;;;;;;;;;;;;;;;-144.99;70.28;51995.63;5046416;28;20305;-72
2023/06/21 10:17:04;;;;;;;;;;;;;;;-144.99;69.53;52060.84;5045876;28;19955;-72
2023/06/21 10:19:30;;;;;;;;;;;;;;;-144.99;70.13;52020.09;5042686;28;20379;-70
2023/06/21 10:22:06;;;;;;;;;;;;;;;-144.99;70.00;52020.09;5041020;28;19943;-72
2023/06/21 10:24:37;;;;;;;;;;;;;;;-144.99;69.81;52020.09;5044894;28;21057;-72
2023/06/21 10:27:05;;;;;;;;;;;;;;;-144.99;69.93;52003.78;5034266;28;19933;-72
2023/06/21 10:29:32;;;;;;;;;;;;;;;-144.99;69.57;51963.03;5043042;28;19967;-72
2023/06/21 10:32:00;;;;;;;;;;;;;;;-144.99;68.32;52028.22;5042378;28;19963;-72
2023/06/21 10:34:28;;;;;;;;;;;;;;;-144.99;67.73;52020.09;5044729;28;20025;-71
2023/06/21 10:36:56;;;;;;;;;;;;;;;-144.99;67.96;52034.34;5035316;28;19963;-71
2023/06/21 10:39:25;;;;;;;;;;;;;;;-144.99;67.98;51975.25;5045050;28;19929;-72
2023/06/21 10:41:53;;;;;;;;;;;;;;;-144.99;67.79;52028.22;5046289;28;20360;-72
2023/06/21 10:44:20;;;;;;;;;;;;;;;-144.99;67.44;51940.59;5044220;28;19940;-72
2023/06/21 10:46:48;;;;;;;;;;;;;;;-144.99;66.46;52020.09;5039438;28;19929;-72
2023/06/21 10:49:17;;;;;;;;;;;;;;;-144.99;66.87;51971.16;5047084;28;19952;-70
2023/06/21 10:51:44;;;;;;;;;;;;;;;-144.99;66.57;51958.94;5050442;28;20323;-71
2023/06/21 10:54:11;;;;;;;;;;;;;;;-144.99;66.50;51967.09;5044301;28;20457;-71
2023/06/21 10:56:39;;;;;;;;;;;;;;;-144.99;66.39;52003.78;5051090;28;19969;-71
2023/06/21 10:59:07;;;;;;;;;;;;;;;-144.99;66.13;51942.63;5043614;28;19939;-71
2023/06/21 11:01:33;;;;;;;;;;;;;;;-144.99;65.95;51965.06;5040100;28;19940;-70
2023/06/21 11:04:00;;;;;;;;;;;;;;;-144.99;65.91;51997.66;5040095;28;20323;-70
2023/06/21 11:06:28;;;;;;;;;;;;;;;-144.99;65.61;51967.09;5045877;28;19929;-71
2023/06/21 11:08:55;;;;;;;;;;;;;;;-144.99;65.67;52001.75;5036889;28;20369;-70
2023/06/21 11:11:29;;;;;;;;;;;;;;;-144.99;66.00;52044.53;5047020;28;20289;-71
2023/06/21 11:13:55;;;;;;;;;;;;;;;-144.99;66.63;52016.00;5043699;28;19951;-71
2023/06/21 11:16:25;;;;;;;;;;;;;;;-144.99;65.91;52022.13;5049602;28;19971;-71
2023/06/21 11:18:55;;;;;;;;;;;;;;;-144.99;65.93;52028.22;5038525;28;19942;-72
2023/06/21 11:21:34;;;;;;;;;;;;;;;-144.99;66.68;52064.91;5045709;28;19955;-71
2023/06/21 11:24:05;;;;;;;;;;;;;;;-144.99;67.66;52093.44;5044560;28;19980;-71
2023/06/21 11:26:51;;;;;;;;;;;;;;;-144.99;68.18;52009.91;5048655;28;19973;-72
2023/06/21 11:29:18;;;;;;;;;;;;;;;-144.99;67.66;51999.69;5044784;28;19956;-71
2023/06/21 11:31:46;;;;;;;;;;;;;;;-144.99;67.37;51991.56;5046384;28;20129;-71
2023/06/21 11:34:22;;;;;;;;;;;;;;;-144.99;67.24;52032.31;5036163;28;20367;-71
2023/06/21 11:36:49;;;;;;;;;;;;;;;-144.99;67.32;52009.91;5049195;28;19944;-71
2023/06/21 11:39:28;;;;;;;;;;;;;;;-144.99;67.27;51991.56;5038784;28;19959;-71
2023/06/21 11:41:59;;;;;;;;;;;;;;;-144.99;66.41;51954.88;5043178;28;20310;-71
2023/06/21 11:44:26;;;;;;;;;;;;;;;-144.99;65.33;51979.31;5045290;28;19963;-71
2023/06/21 11:47:03;;;;;;;;;;;;;;;-144.99;65.87;51995.63;5049181;28;19974;-71
2023/06/21 11:49:31;;;;;;;;;;;;;;;-144.99;65.16;51973.22;5046562;28;19958;-73
2023/06/21 11:52:02;;;;;;;;;;;;;;;-144.99;64.31;51973.22;5049436;28;19975;-72
2023/06/21 11:54:29;;;;;;;;;;;;;;;-144.99;65.44;52007.84;5048798;28;19924;-72
2023/06/21 11:56:56;;;;;;;;;;;;;;;-144.99;65.45;51981.38;5046430;28;19997;-71
2023/06/21 11:59:23;;;;;;;;;;;;;;;-144.99;64.85;51971.16;5045237;28;19979;-71
2023/06/21 12:01:50;;;;;;;;;;;;;;;-144.99;64.37;51938.56;5042191;28;19959;-72
2023/06/21 12:04:26;;;;;;;;;;;;;;;-144.99;64.75;51958.94;5045264;28;19937;-71
2023/06/21 12:06:52;;;;;;;;;;;;;;;-144.99;64.72;52001.75;5041424;28;19935;-72
2023/06/21 12:09:19;;;;;;;;;;;;;;;-144.99;65.10;51950.78;5045549;28;19979;-71
2023/06/21 12:11:47;;;;;;;;;;;;;;;-144.99;64.44;51940.59;5044678;28;20539;-72
2023/06/21 12:14:14;;;;;;;;;;;;;;;-144.99;64.72;51983.41;5041338;28;19959;-73
2023/06/21 12:16:41;;;;;;;;;;;;;;;-144.99;64.82;51997.66;5047499;28;20400;-73
2023/06/21 12:19:08;;;;;;;;;;;;;;;-144.99;65.20;51999.69;5045620;28;19940;-72
2023/06/21 12:21:39;;;;;;;;;;;;;;;-144.99;64.08;51954.88;5046403;28;19955;-72
2023/06/21 12:24:05;;;;;;;;;;;;;;;-144.99;63.75;51963.03;5040499;28;19951;-72